Time,TemperatureF,DewpointF,PressureIn,WindDirection,WindDirectionDegrees,WindSpeedMPH,WindSpeedGustMPH,Humidity,HourlyPrecipIn,Conditions,Clouds,dailyrainin,SoftwareType,DateUTC
2013-02-24 00:01:00,25.0,22.0,-100.00,WSW,255,5.0,8.0,88,-99.99,,,-99.99,,2013-02-24 06:01:00,
2013-02-24 00:21:00,25.0,22.0,-100.00,NW,310,2.0,6.0,89,-99.99,,,-99.99,,2013-02-24 06:21:00,
2013-02-24 00:32:00,25.0,22.0,-100.00,NW,310,2.0,6.0,89,-99.99,,,-99.99,,2013-02-24 06:32:00,
2013-02-24 00:42:00,25.0,22.0,-100.00,NW,310,2.0,6.0,89,-99.99,,,-99.99,,2013-02-24 06:42:00,
2013-02-24 00:52:00,25.0,22.0,-100.00,NW,310,2.0,6.0,89,-99.99,,,-99.99,,2013-02-24 06:52:00,
2013-02-24 01:01:00,25.0,22.0,-100.00,NW,310,2.0,6.0,89,-99.99,,,-99.99,,2013-02-24 07:01:00,
2013-02-24 01:22:00,24.0,22.0,-100.00,WSW,255,1.0,4.0,89,-99.99,,,-99.99,,2013-02-24 07:22:00,
2013-02-24 01:32:00,24.0,22.0,-100.00,WSW,255,1.0,4.0,89,-99.99,,,-99.99,,2013-02-24 07:32:00,
2013-02-24 01:42:00,24.0,22.0,-100.00,WSW,255,1.0,4.0,89,-99.99,,,-99.99,,2013-02-24 07:42:00,
2013-02-24 01:52:00,24.0,22.0,-100.00,WSW,255,1.0,4.0,89,-99.99,,,-99.99,,2013-02-24 07:52:00,
2013-02-24 02:01:00,24.0,22.0,-100.00,WSW,255,1.0,4.0,89,-99.99,,,-99.99,,2013-02-24 08:01:00,
2013-02-24 02:22:00,24.0,21.0,-100.00,WSW,250,3.0,7.0,89,-99.99,,,-99.99,,2013-02-24 08:22:00,
2013-02-24 02:32:00,24.0,21.0,-100.00,WSW,250,3.0,7.0,89,-99.99,,,-99.99,,2013-02-24 08:32:00,
2013-02-24 02:42:00,24.0,21.0,-100.00,WSW,250,3.0,7.0,89,-99.99,,,-99.99,,2013-02-24 08:42:00,
2013-02-24 02:54:00,24.0,21.0,-100.00,WSW,250,3.0,7.0,89,-99.99,,,-99.99,,2013-02-24 08:54:00,
2013-02-24 03:01:00,24.0,21.0,-100.00,WSW,250,3.0,7.0,89,-99.99,,,-99.99,,2013-02-24 09:01:00,
2013-02-24 03:22:00,23.0,21.0,-100.00,NNW,335,0.0,6.0,89,-99.99,,,-99.99,,2013-02-24 09:22:00,
2013-02-24 03:32:00,23.0,21.0,-100.00,NNW,335,0.0,6.0,89,-99.99,,,-99.99,,2013-02-24 09:32:00,
2013-02-24 03:42:00,23.0,21.0,-100.00,NNW,335,0.0,6.0,89,-99.99,,,-99.99,,2013-02-24 09:42:00,
2013-02-24 03:52:00,23.0,21.0,-100.00,NNW,335,0.0,6.0,89,-99.99,,,-99.99,,2013-02-24 09:52:00,
2013-02-24 04:01:00,23.0,21.0,-100.00,NNW,335,0.0,6.0,89,-99.99,,,-99.99,,2013-02-24 10:01:00,
2013-02-24 04:22:00,23.0,20.0,-100.00,WSW,245,2.0,4.0,90,-99.99,,,-99.99,,2013-02-24 10:22:00,
2013-02-24 04:32:00,23.0,20.0,-100.00,WSW,245,2.0,4.0,90,-99.99,,,-99.99,,2013-02-24 10:32:00,
2013-02-24 04:42:00,23.0,20.0,-100.00,WSW,245,2.0,4.0,90,-99.99,,,-99.99,,2013-02-24 10:42:00,
2013-02-24 04:52:00,23.0,20.0,-100.00,WSW,245,2.0,4.0,90,-99.99,,,-99.99,,2013-02-24 10:52:00,
2013-02-24 05:01:00,23.0,20.0,-100.00,WSW,245,2.0,4.0,90,-99.99,,,-99.99,,2013-02-24 11:01:00,
2013-02-24 05:22:00,22.0,20.0,-100.00,West,280,1.0,3.0,90,-99.99,,,-99.99,,2013-02-24 11:22:00,
2013-02-24 05:32:00,22.0,20.0,-100.00,West,280,1.0,3.0,90,-99.99,,,-99.99,,2013-02-24 11:32:00,
2013-02-24 05:42:00,22.0,20.0,-100.00,West,280,1.0,3.0,90,-99.99,,,-99.99,,2013-02-24 11:42:00,
2013-02-24 05:53:00,22.0,20.0,-100.00,West,280,1.0,3.0,90,-99.99,,,-99.99,,2013-02-24 11:53:00,
2013-02-24 06:01:00,22.0,20.0,-100.00,West,280,1.0,3.0,90,-99.99,,,-99.99,,2013-02-24 12:01:00,
2013-02-24 06:22:00,20.0,18.0,-100.00,West,260,3.0,5.0,92,-99.99,,,-99.99,,2013-02-24 12:22:00,
2013-02-24 06:33:00,20.0,18.0,-100.00,West,260,3.0,5.0,92,-99.99,,,-99.99,,2013-02-24 12:33:00,
2013-02-24 06:46:00,20.0,18.0,-100.00,West,260,3.0,5.0,92,-99.99,,,-99.99,,2013-02-24 12:46:00,
2013-02-24 06:56:00,20.0,18.0,-100.00,West,260,3.0,5.0,92,-99.99,,,-99.99,,2013-02-24 12:56:00,
2013-02-24 07:02:00,20.0,18.0,-100.00,West,280,0.0,2.0,93,-99.99,,,-99.99,,2013-02-24 13:02:00,
2013-02-24 07:27:00,20.0,18.0,-100.00,West,280,0.0,2.0,93,-99.99,,,-99.99,,2013-02-24 13:27:00,
2013-02-24 07:35:00,20.0,18.0,-100.00,West,280,0.0,2.0,93,-99.99,,,-99.99,,2013-02-24 13:35:00,
2013-02-24 07:45:00,20.0,18.0,-100.00,West,280,0.0,2.0,93,-99.99,,,-99.99,,2013-02-24 13:45:00,
2013-02-24 07:55:00,20.0,18.0,-100.00,West,280,0.0,2.0,93,-99.99,,,-99.99,,2013-02-24 13:55:00,
2013-02-24 08:02:00,19.0,17.0,-100.00,SW,230,0.0,2.0,94,-99.99,,,-99.99,,2013-02-24 14:02:00,
2013-02-24 08:25:00,19.0,17.0,-100.00,SW,230,0.0,2.0,94,-99.99,,,-99.99,,2013-02-24 14:25:00,
2013-02-24 08:34:00,19.0,17.0,-100.00,SW,230,0.0,2.0,94,-99.99,,,-99.99,,2013-02-24 14:34:00,
2013-02-24 08:54:00,19.0,17.0,-100.00,SW,230,0.0,2.0,94,-99.99,,,-99.99,,2013-02-24 14:54:00,
2013-02-24 09:24:00,26.0,21.0,-100.00,South,190,1.0,3.0,79,-99.99,,,-99.99,,2013-02-24 15:24:00,
2013-02-24 09:42:00,26.0,21.0,-100.00,South,190,1.0,3.0,79,-99.99,,,-99.99,,2013-02-24 15:42:00,
2013-02-24 09:53:00,26.0,21.0,-100.00,South,190,1.0,3.0,79,-99.99,,,-99.99,,2013-02-24 15:53:00,
2013-02-24 10:01:00,26.0,21.0,-100.00,South,190,1.0,3.0,79,-99.99,,,-99.99,,2013-02-24 16:01:00,
2013-02-24 10:22:00,34.0,21.0,-100.00,East,80,0.0,2.0,57,-99.99,,,-99.99,,2013-02-24 16:22:00,
2013-02-24 11:22:00,39.0,21.0,-100.00,NW,310,1.0,2.0,47,-99.99,,,-99.99,,2013-02-24 17:22:00,
2013-02-24 12:22:00,40.0,21.0,-100.00,North,350,0.0,3.0,45,-99.99,,,-99.99,,2013-02-24 18:22:00,
2013-02-24 20:21:00,25.0,20.0,-100.00,South,185,1.0,2.0,81,-99.99,,,-99.99,,2013-02-25 02:21:00,
2013-02-24 20:32:00,25.0,20.0,-100.00,South,185,1.0,2.0,81,-99.99,,,-99.99,,2013-02-25 02:32:00,
2013-02-24 20:42:00,25.0,20.0,-100.00,South,185,1.0,2.0,81,-99.99,,,-99.99,,2013-02-25 02:42:00,
2013-02-24 20:52:00,25.0,20.0,-100.00,South,185,1.0,2.0,81,-99.99,,,-99.99,,2013-02-25 02:52:00,
2013-02-24 21:01:00,25.0,20.0,-100.00,South,185,1.0,2.0,81,-99.99,,,-99.99,,2013-02-25 03:01:00,
2013-02-24 21:21:00,21.0,18.0,-100.00,SSW,200,0.0,1.0,89,-99.99,,,-99.99,,2013-02-25 03:21:00,
2013-02-24 21:32:00,21.0,18.0,-100.00,SSW,200,0.0,1.0,89,-99.99,,,-99.99,,2013-02-25 03:32:00,
2013-02-24 21:42:00,21.0,18.0,-100.00,SSW,200,0.0,1.0,89,-99.99,,,-99.99,,2013-02-25 03:42:00,
2013-02-24 21:52:00,21.0,18.0,-100.00,SSW,200,0.0,1.0,89,-99.99,,,-99.99,,2013-02-25 03:52:00,
2013-02-24 22:01:00,21.0,18.0,-100.00,SSW,200,0.0,1.0,89,-99.99,,,-99.99,,2013-02-25 04:01:00,
2013-02-24 22:22:00,19.0,17.0,-100.00,SSE,155,0.0,1.0,93,-99.99,,,-99.99,,2013-02-25 04:22:00,
2013-02-24 22:32:00,19.0,17.0,-100.00,SSE,155,0.0,1.0,93,-99.99,,,-99.99,,2013-02-25 04:32:00,
2013-02-24 22:42:00,19.0,17.0,-100.00,SSE,155,0.0,1.0,93,-99.99,,,-99.99,,2013-02-25 04:42:00,
2013-02-24 22:52:00,19.0,17.0,-100.00,SSE,155,0.0,1.0,93,-99.99,,,-99.99,,2013-02-25 04:52:00,
2013-02-24 23:01:00,19.0,17.0,-100.00,SSE,155,0.0,1.0,93,-99.99,,,-99.99,,2013-02-25 05:01:00,
2013-02-24 23:02:00,18.0,17.0,-100.00,SE,125,1.0,1.0,96,-99.99,,,-99.99,,2013-02-25 05:02:00,
2013-02-24 23:22:00,18.0,17.0,-100.00,SE,125,1.0,1.0,96,-99.99,,,-99.99,,2013-02-25 05:22:00,
2013-02-24 23:32:00,18.0,17.0,-100.00,SE,125,1.0,1.0,96,-99.99,,,-99.99,,2013-02-25 05:32:00,
2013-02-24 23:42:00,18.0,17.0,-100.00,SE,125,1.0,1.0,96,-99.99,,,-99.99,,2013-02-25 05:42:00,
2013-02-24 23:52:00,18.0,17.0,-100.00,SE,125,1.0,1.0,96,-99.99,,,-99.99,,2013-02-25 05:52:00,